sensor_id;sensor_type;location;lat;lon;timestamp;pressure;altitude;pressure_sealevel;temperature;humidity
22025;BME280;11176;51.448;6.650;2022-11-15T00:00:53;45526.13;;;-141.29;93.70
22025;BME280;11176;51.448;6.650;2022-11-15T00:03:38;45526.13;;;-141.29;94.06
22025;BME280;11176;51.448;6.650;2022-11-15T00:06:23;45538.13;;;-141.29;94.17
22025;BME280;11176;51.448;6.650;2022-11-15T00:09:08;45538.13;;;-141.29;94.60
22025;BME280;11176;51.448;6.650;2022-11-15T00:11:53;45534.13;;;-141.29;94.71
22025;BME280;11176;51.448;6.650;2022-11-15T00:14:38;45498.16;;;-141.29;94.88
22025;BME280;11176;51.448;6.650;2022-11-15T00:17:23;45516.13;;;-141.29;94.81
22025;BME280;11176;51.448;6.650;2022-11-15T00:20:08;45506.16;;;-141.29;95.29
22025;BME280;11176;51.448;6.650;2022-11-15T00:22:53;45512.16;;;-141.29;95.53
22025;BME280;11176;51.448;6.650;2022-11-15T00:25:38;45518.13;;;-141.29;96.03
22025;BME280;11176;51.448;6.650;2022-11-15T00:28:24;45522.13;;;-141.29;96.16
22025;BME280;11176;51.448;6.650;2022-11-15T00:31:12;45498.16;;;-141.29;95.99
22025;BME280;11176;51.448;6.650;2022-11-15T00:33:57;45514.13;;;-141.29;96.06
22025;BME280;11176;51.448;6.650;2022-11-15T00:36:42;45538.13;;;-141.29;96.48
22025;BME280;11176;51.448;6.650;2022-11-15T00:39:27;45518.13;;;-141.29;96.83
22025;BME280;11176;51.448;6.650;2022-11-15T00:42:12;45522.13;;;-141.29;96.76
22025;BME280;11176;51.448;6.650;2022-11-15T00:44:57;45516.13;;;-141.29;96.64
22025;BME280;11176;51.448;6.650;2022-11-15T00:47:44;45506.16;;;-141.29;96.47
22025;BME280;11176;51.448;6.650;2022-11-15T00:50:30;45496.16;;;-141.29;97.03
22025;BME280;11176;51.448;6.650;2022-11-15T00:53:15;45518.13;;;-141.29;96.96
22025;BME280;11176;51.448;6.650;2022-11-15T00:56:01;45514.13;;;-141.29;97.09
22025;BME280;11176;51.448;6.650;2022-11-15T00:58:46;45522.13;;;-141.29;97.29
22025;BME280;11176;51.448;6.650;2022-11-15T01:01:30;45512.16;;;-141.29;97.47
22025;BME280;11176;51.448;6.650;2022-11-15T01:04:16;45504.16;;;-141.29;97.58
22025;BME280;11176;51.448;6.650;2022-11-15T01:07:01;45514.13;;;-141.29;97.86
22025;BME280;11176;51.448;6.650;2022-11-15T01:09:46;45526.13;;;-141.29;97.96
22025;BME280;11176;51.448;6.650;2022-11-15T01:12:30;45514.13;;;-141.29;98.14
22025;BME280;11176;51.448;6.650;2022-11-15T01:15:17;45504.16;;;-141.29;98.33
22025;BME280;11176;51.448;6.650;2022-11-15T01:18:02;45502.16;;;-141.29;98.09
22025;BME280;11176;51.448;6.650;2022-11-15T01:20:47;45492.16;;;-141.29;98.27
22025;BME280;11176;51.448;6.650;2022-11-15T01:23:32;45498.16;;;-141.29;98.14
22025;BME280;11176;51.448;6.650;2022-11-15T01:26:17;45494.16;;;-141.29;98.39
22025;BME280;11176;51.448;6.650;2022-11-15T01:29:03;45512.16;;;-141.29;98.75
22025;BME280;11176;51.448;6.650;2022-11-15T01:31:47;45498.16;;;-141.29;98.88
22025;BME280;11176;51.448;6.650;2022-11-15T01:34:32;45494.16;;;-141.29;98.79
22025;BME280;11176;51.448;6.650;2022-11-15T01:37:17;45498.16;;;-141.29;98.64
22025;BME280;11176;51.448;6.650;2022-11-15T01:40:03;45506.16;;;-141.29;99.05
22025;BME280;11176;51.448;6.650;2022-11-15T01:42:48;45514.13;;;-141.29;99.05
22025;BME280;11176;51.448;6.650;2022-11-15T01:45:33;45484.16;;;-141.29;99.18
22025;BME280;11176;51.448;6.650;2022-11-15T01:48:18;45494.16;;;-141.29;99.26
22025;BME280;11176;51.448;6.650;2022-11-15T01:51:07;45502.16;;;-141.29;99.14
22025;BME280;11176;51.448;6.650;2022-11-15T01:53:56;45494.16;;;-141.29;99.09
22025;BME280;11176;51.448;6.650;2022-11-15T01:56:51;45498.16;;;-141.29;98.96
22025;BME280;11176;51.448;6.650;2022-11-15T01:59:40;45490.16;;;-141.29;99.12
22025;BME280;11176;51.448;6.650;2022-11-15T02:02:27;45490.16;;;-141.29;99.22
22025;BME280;11176;51.448;6.650;2022-11-15T02:05:13;45490.16;;;-141.29;99.42
22025;BME280;11176;51.448;6.650;2022-11-15T02:07:59;45478.16;;;-141.29;99.56
22025;BME280;11176;51.448;6.650;2022-11-15T02:10:48;45490.16;;;-141.29;99.60
22025;BME280;11176;51.448;6.650;2022-11-15T02:13:33;45490.16;;;-141.29;99.62
22025;BME280;11176;51.448;6.650;2022-11-15T02:16:25;45506.16;;;-141.29;99.60
22025;BME280;11176;51.448;6.650;2022-11-15T02:25:42;45480.16;;;-141.29;99.66
22025;BME280;11176;51.448;6.650;2022-11-15T02:28:59;45494.16;;;-141.29;99.70
22025;BME280;11176;51.448;6.650;2022-11-15T02:32:14;45498.16;;;-141.29;99.56
22025;BME280;11176;51.448;6.650;2022-11-15T02:38:59;45484.16;;;-141.29;99.45
22025;BME280;11176;51.448;6.650;2022-11-15T02:44:36;45498.16;;;-141.29;99.78
22025;BME280;11176;51.448;6.650;2022-11-15T02:47:25;45506.16;;;-141.29;99.67
22025;BME280;11176;51.448;6.650;2022-11-15T02:50:16;45486.16;;;-141.29;99.67
22025;BME280;11176;51.448;6.650;2022-11-15T02:53:02;45490.16;;;-141.29;99.56
22025;BME280;11176;51.448;6.650;2022-11-15T02:55:49;45512.16;;;-141.29;99.67
22025;BME280;11176;51.448;6.650;2022-11-15T02:59:09;45486.16;;;-141.29;99.71
22025;BME280;11176;51.448;6.650;2022-11-15T03:02:11;45484.16;;;-141.29;99.72
22025;BME280;11176;51.448;6.650;2022-11-15T03:08:26;45470.19;;;-141.29;99.43
22025;BME280;11176;51.448;6.650;2022-11-15T03:11:15;45482.16;;;-141.29;99.36
22025;BME280;11176;51.448;6.650;2022-11-15T03:14:27;45474.16;;;-141.29;99.62
22025;BME280;11176;51.448;6.650;2022-11-15T03:17:28;45482.16;;;-141.29;99.55
22025;BME280;11176;51.448;6.650;2022-11-15T03:20:17;45494.16;;;-141.29;99.58
22025;BME280;11176;51.448;6.650;2022-11-15T03:23:06;45494.16;;;-141.29;99.34
22025;BME280;11176;51.448;6.650;2022-11-15T03:25:54;45478.16;;;-141.29;99.33
22025;BME280;11176;51.448;6.650;2022-11-15T03:28:53;45484.16;;;-141.29;99.25
22025;BME280;11176;51.448;6.650;2022-11-15T03:31:43;45474.16;;;-141.29;99.22
22025;BME280;11176;51.448;6.650;2022-11-15T03:34:50;45470.19;;;-141.29;99.14
22025;BME280;11176;51.448;6.650;2022-11-15T03:37:45;45474.16;;;-141.29;99.46
22025;BME280;11176;51.448;6.650;2022-11-15T03:40:41;45476.16;;;-141.29;99.27
22025;BME280;11176;51.448;6.650;2022-11-15T03:46:39;45482.16;;;-141.29;99.36
22025;BME280;11176;51.448;6.650;2022-11-15T03:49:33;45490.16;;;-141.29;99.20
22025;BME280;11176;51.448;6.650;2022-11-15T03:52:21;45486.16;;;-141.29;99.32
22025;BME280;11176;51.448;6.650;2022-11-15T03:55:09;45476.16;;;-141.29;99.53
22025;BME280;11176;51.448;6.650;2022-11-15T03:57:57;45490.16;;;-141.29;99.75
22025;BME280;11176;51.448;6.650;2022-11-15T04:00:43;45474.16;;;-141.29;99.96
22025;BME280;11176;51.448;6.650;2022-11-15T04:03:28;45486.16;;;-141.29;99.74
22025;BME280;11176;51.448;6.650;2022-11-15T04:06:14;45478.16;;;-141.29;99.67
22025;BME280;11176;51.448;6.650;2022-11-15T04:08:59;45458.19;;;-141.29;99.87
22025;BME280;11176;51.448;6.650;2022-11-15T04:11:44;45486.16;;;-141.29;99.74
22025;BME280;11176;51.448;6.650;2022-11-15T04:14:29;45486.16;;;-141.29;99.63
22025;BME280;11176;51.448;6.650;2022-11-15T04:17:14;45470.19;;;-141.29;99.99
22025;BME280;11176;51.448;6.650;2022-11-15T04:19:59;45462.19;;;-141.29;99.90
22025;BME280;11176;51.448;6.650;2022-11-15T04:23:06;45460.19;;;-141.29;99.93
22025;BME280;11176;51.448;6.650;2022-11-15T04:26:14;45490.16;;;-141.29;100.00
22025;BME280;11176;51.448;6.650;2022-11-15T04:29:00;45480.16;;;-141.29;100.00
22025;BME280;11176;51.448;6.650;2022-11-15T04:32:06;45464.19;;;-141.29;100.00
22025;BME280;11176;51.448;6.650;2022-11-15T04:34:51;45470.19;;;-141.29;100.00
22025;BME280;11176;51.448;6.650;2022-11-15T04:37:36;45478.16;;;-141.29;100.00
22025;BME280;11176;51.448;6.650;2022-11-15T04:40:21;45468.19;;;-141.29;100.00
22025;BME280;11176;51.448;6.650;2022-11-15T04:43:06;45466.19;;;-141.29;100.00
22025;BME280;11176;51.448;6.650;2022-11-15T04:45:51;45466.19;;;-141.29;100.00
22025;BME280;11176;51.448;6.650;2022-11-15T04:48:36;45486.16;;;-141.29;100.00
22025;BME280;11176;51.448;6.650;2022-11-15T04:51:21;45486.16;;;-141.29;100.00
22025;BME280;11176;51.448;6.650;2022-11-15T04:54:06;45470.19;;;-141.29;100.00
22025;BME280;11176;51.448;6.650;2022-11-15T04:56:51;45478.16;;;-141.29;100.00
22025;BME280;11176;51.448;6.650;2022-11-15T04:59:35;45454.19;;;-141.29;100.00
22025;BME280;11176;51.448;6.650;2022-11-15T05:02:20;45474.16;;;-141.29;100.00
22025;BME280;11176;51.448;6.650;2022-11-15T05:05:06;45470.19;;;-141.29;100.00
22025;BME280;11176;51.448;6.650;2022-11-15T05:07:51;45474.16;;;-141.29;100.00
22025;BME280;11176;51.448;6.650;2022-11-15T05:10:36;45478.16;;;-141.29;100.00
22025;BME280;11176;51.448;6.650;2022-11-15T05:13:20;45476.16;;;-141.29;100.00
22025;BME280;11176;51.448;6.650;2022-11-15T05:16:06;45478.16;;;-141.29;100.00
22025;BME280;11176;51.448;6.650;2022-11-15T05:18:52;45478.16;;;-141.29;100.00
22025;BME280;11176;51.448;6.650;2022-11-15T05:21:37;45476.16;;;-141.29;100.00
22025;BME280;11176;51.448;6.650;2022-11-15T05:24:22;45474.16;;;-141.29;100.00
22025;BME280;11176;51.448;6.650;2022-11-15T05:27:07;45466.19;;;-141.29;100.00
22025;BME280;11176;51.448;6.650;2022-11-15T05:29:52;45480.16;;;-141.29;100.00
22025;BME280;11176;51.448;6.650;2022-11-15T05:32:37;45490.16;;;-141.29;100.00
22025;BME280;11176;51.448;6.650;2022-11-15T05:35:30;45470.19;;;-141.29;100.00
22025;BME280;11176;51.448;6.650;2022-11-15T05:38:16;45462.19;;;-141.29;100.00
22025;BME280;11176;51.448;6.650;2022-11-15T05:41:01;45472.16;;;-141.29;100.00
22025;BME280;11176;51.448;6.650;2022-11-15T05:43:48;45474.16;;;-141.29;100.00
22025;BME280;11176;51.448;6.650;2022-11-15T05:46:35;45474.16;;;-141.29;100.00
22025;BME280;11176;51.448;6.650;2022-11-15T05:49:25;45474.16;;;-141.29;100.00
22025;BME280;11176;51.448;6.650;2022-11-15T05:52:14;45474.16;;;-141.29;100.00
22025;BME280;11176;51.448;6.650;2022-11-15T05:55:01;45462.19;;;-141.29;100.00
22025;BME280;11176;51.448;6.650;2022-11-15T05:57:47;45458.19;;;-141.29;100.00
22025;BME280;11176;51.448;6.650;2022-11-15T06:00:32;45476.16;;;-141.29;100.00
22025;BME280;11176;51.448;6.650;2022-11-15T06:03:17;45474.16;;;-141.29;100.00
22025;BME280;11176;51.448;6.650;2022-11-15T06:06:02;45482.16;;;-141.29;100.00
22025;BME280;11176;51.448;6.650;2022-11-15T06:08:47;45484.16;;;-141.29;100.00
22025;BME280;11176;51.448;6.650;2022-11-15T06:11:32;45466.19;;;-141.29;100.00
22025;BME280;11176;51.448;6.650;2022-11-15T06:14:17;45490.16;;;-141.29;100.00
22025;BME280;11176;51.448;6.650;2022-11-15T06:17:02;45490.16;;;-141.29;100.00
22025;BME280;11176;51.448;6.650;2022-11-15T06:19:54;45470.19;;;-141.29;100.00
22025;BME280;11176;51.448;6.650;2022-11-15T06:22:39;45480.16;;;-141.29;100.00
22025;BME280;11176;51.448;6.650;2022-11-15T06:25:26;45462.19;;;-141.29;100.00
22025;BME280;11176;51.448;6.650;2022-11-15T06:28:11;45470.19;;;-141.29;100.00
22025;BME280;11176;51.448;6.650;2022-11-15T06:30:56;45478.16;;;-141.29;100.00
22025;BME280;11176;51.448;6.650;2022-11-15T06:33:41;45464.19;;;-141.29;100.00
22025;BME280;11176;51.448;6.650;2022-11-15T06:36:26;45464.19;;;-141.29;100.00
22025;BME280;11176;51.448;6.650;2022-11-15T06:39:11;45490.16;;;-141.29;100.00
22025;BME280;11176;51.448;6.650;2022-11-15T06:41:56;45454.19;;;-141.29;100.00
22025;BME280;11176;51.448;6.650;2022-11-15T06:44:41;45466.19;;;-141.29;100.00
22025;BME280;11176;51.448;6.650;2022-11-15T06:47:26;45462.19;;;-141.29;100.00
22025;BME280;11176;51.448;6.650;2022-11-15T06:50:11;45478.16;;;-141.29;100.00
22025;BME280;11176;51.448;6.650;2022-11-15T06:53:00;45448.19;;;-141.29;100.00
22025;BME280;11176;51.448;6.650;2022-11-15T06:55:46;45470.19;;;-141.29;100.00
22025;BME280;11176;51.448;6.650;2022-11-15T06:58:38;45458.19;;;-141.29;100.00
22025;BME280;11176;51.448;6.650;2022-11-15T07:01:23;45484.16;;;-141.29;100.00
22025;BME280;11176;51.448;6.650;2022-11-15T07:04:08;45472.16;;;-141.29;100.00
22025;BME280;11176;51.448;6.650;2022-11-15T07:06:53;45464.19;;;-141.29;100.00
22025;BME280;11176;51.448;6.650;2022-11-15T07:09:38;45462.19;;;-141.29;100.00
22025;BME280;11176;51.448;6.650;2022-11-15T07:12:23;45470.19;;;-141.29;100.00
22025;BME280;11176;51.448;6.650;2022-11-15T07:15:08;45470.19;;;-141.29;100.00
22025;BME280;11176;51.448;6.650;2022-11-15T07:17:54;45466.19;;;-141.29;100.00
22025;BME280;11176;51.448;6.650;2022-11-15T07:20:39;45454.19;;;-141.29;100.00
22025;BME280;11176;51.448;6.650;2022-11-15T07:23:24;45462.19;;;-141.29;100.00
22025;BME280;11176;51.448;6.650;2022-11-15T07:26:09;45466.19;;;-141.29;100.00
22025;BME280;11176;51.448;6.650;2022-11-15T07:28:55;45470.19;;;-141.29;100.00
22025;BME280;11176;51.448;6.650;2022-11-15T07:31:40;45474.16;;;-141.29;100.00
22025;BME280;11176;51.448;6.650;2022-11-15T07:34:25;45462.19;;;-141.29;99.71
22025;BME280;11176;51.448;6.650;2022-11-15T07:37:10;45450.19;;;-141.29;98.27
22025;BME280;11176;51.448;6.650;2022-11-15T07:39:55;45484.16;;;-141.29;97.16
22025;BME280;11176;51.448;6.650;2022-11-15T07:42:40;45452.19;;;-141.29;96.79
22025;BME280;11176;51.448;6.650;2022-11-15T07:45:45;45472.16;;;-141.29;96.67
22025;BME280;11176;51.448;6.650;2022-11-15T07:48:30;45462.19;;;-141.29;96.71
22025;BME280;11176;51.448;6.650;2022-11-15T07:51:27;45462.19;;;-141.29;96.92
22025;BME280;11176;51.448;6.650;2022-11-15T07:54:12;45466.19;;;-141.29;97.21
22025;BME280;11176;51.448;6.650;2022-11-15T07:56:57;45466.19;;;-141.29;98.20
22025;BME280;11176;51.448;6.650;2022-11-15T07:59:49;45478.16;;;-141.29;98.61
22025;BME280;11176;51.448;6.650;2022-11-15T08:02:34;45466.19;;;-141.29;98.53
22025;BME280;11176;51.448;6.650;2022-11-15T08:05:19;45462.19;;;-141.29;98.96
22025;BME280;11176;51.448;6.650;2022-11-15T08:08:05;45482.16;;;-141.29;99.52
22025;BME280;11176;51.448;6.650;2022-11-15T08:10:50;45466.19;;;-141.29;99.97
22025;BME280;11176;51.448;6.650;2022-11-15T08:13:35;45484.16;;;-141.29;100.00
22025;BME280;11176;51.448;6.650;2022-11-15T08:16:20;45472.16;;;-141.29;100.00
22025;BME280;11176;51.448;6.650;2022-11-15T08:19:05;45480.16;;;-141.29;100.00
22025;BME280;11176;51.448;6.650;2022-11-15T08:21:50;45478.16;;;-141.29;100.00
22025;BME280;11176;51.448;6.650;2022-11-15T08:24:35;45474.16;;;-141.29;100.00
22025;BME280;11176;51.448;6.650;2022-11-15T08:27:20;45478.16;;;-141.29;100.00
22025;BME280;11176;51.448;6.650;2022-11-15T08:30:06;45488.16;;;-141.29;100.00
22025;BME280;11176;51.448;6.650;2022-11-15T08:32:52;45474.16;;;-141.29;100.00
22025;BME280;11176;51.448;6.650;2022-11-15T08:35:39;45486.16;;;-141.29;100.00
22025;BME280;11176;51.448;6.650;2022-11-15T08:38:25;45484.16;;;-141.29;100.00
22025;BME280;11176;51.448;6.650;2022-11-15T08:41:39;45478.16;;;-141.29;100.00
22025;BME280;11176;51.448;6.650;2022-11-15T08:44:23;45472.16;;;-141.29;100.00
22025;BME280;11176;51.448;6.650;2022-11-15T08:47:11;45474.16;;;-141.29;100.00
22025;BME280;11176;51.448;6.650;2022-11-15T08:49:56;45478.16;;;-141.29;100.00
22025;BME280;11176;51.448;6.650;2022-11-15T08:52:41;45478.16;;;-141.29;100.00
22025;BME280;11176;51.448;6.650;2022-11-15T08:55:26;45478.16;;;-141.29;100.00
22025;BME280;11176;51.448;6.650;2022-11-15T08:58:11;45480.16;;;-141.29;100.00
22025;BME280;11176;51.448;6.650;2022-11-15T09:00:56;45494.16;;;-141.29;100.00
22025;BME280;11176;51.448;6.650;2022-11-15T09:03:41;45464.19;;;-141.29;100.00
22025;BME280;11176;51.448;6.650;2022-11-15T09:06:26;45462.19;;;-141.29;100.00
22025;BME280;11176;51.448;6.650;2022-11-15T09:09:11;45490.16;;;-141.29;100.00
22025;BME280;11176;51.448;6.650;2022-11-15T09:11:56;45486.16;;;-141.29;100.00
22025;BME280;11176;51.448;6.650;2022-11-15T09:15:02;45478.16;;;-141.29;100.00
22025;BME280;11176;51.448;6.650;2022-11-15T09:17:47;45482.16;;;-141.29;100.00
22025;BME280;11176;51.448;6.650;2022-11-15T09:20:32;45488.16;;;-141.29;100.00
22025;BME280;11176;51.448;6.650;2022-11-15T09:23:17;45472.16;;;-141.29;100.00
22025;BME280;11176;51.448;6.650;2022-11-15T09:26:04;45486.16;;;-141.29;100.00
22025;BME280;11176;51.448;6.650;2022-11-15T09:28:49;45488.16;;;-141.29;100.00
22025;BME280;11176;51.448;6.650;2022-11-15T09:31:35;45478.16;;;-141.29;100.00
22025;BME280;11176;51.448;6.650;2022-11-15T09:34:20;45462.19;;;-141.29;100.00
22025;BME280;11176;51.448;6.650;2022-11-15T09:37:05;45482.16;;;-141.29;100.00
22025;BME280;11176;51.448;6.650;2022-11-15T09:39:50;45486.16;;;-141.29;100.00
22025;BME280;11176;51.448;6.650;2022-11-15T09:45:55;45466.19;;;-141.29;100.00
22025;BME280;11176;51.448;6.650;2022-11-15T09:48:56;45486.16;;;-141.29;100.00
22025;BME280;11176;51.448;6.650;2022-11-15T09:51:41;45466.19;;;-141.29;100.00
22025;BME280;11176;51.448;6.650;2022-11-15T09:57:18;45466.19;;;-141.29;100.00
22025;BME280;11176;51.448;6.650;2022-11-15T10:03:08;45466.19;;;-141.29;100.00
22025;BME280;11176;51.448;6.650;2022-11-15T10:06:00;45472.16;;;-141.29;100.00
22025;BME280;11176;51.448;6.650;2022-11-15T10:09:01;45466.19;;;-141.29;100.00
22025;BME280;11176;51.448;6.650;2022-11-15T10:11:32;45474.16;;;-141.29;99.19
22025;BME280;11176;51.448;6.650;2022-11-15T10:14:15;45464.19;;;-141.29;97.12
22025;BME280;11176;51.448;6.650;2022-11-15T10:17:13;45454.19;;;-141.29;96.71
22025;BME280;11176;51.448;6.650;2022-11-15T10:27:52;45434.19;;;-141.29;91.22
22025;BME280;11176;51.448;6.650;2022-11-15T10:30:19;45458.19;;;-141.29;90.46
22025;BME280;11176;51.448;6.650;2022-11-15T10:32:47;45450.19;;;-141.29;88.51
22025;BME280;11176;51.448;6.650;2022-11-15T10:35:17;45450.19;;;-141.29;87.06
22025;BME280;11176;51.448;6.650;2022-11-15T10:37:44;45462.19;;;-141.29;85.67
22025;BME280;11176;51.448;6.650;2022-11-15T10:40:21;45462.19;;;-141.29;85.54
22025;BME280;11176;51.448;6.650;2022-11-15T10:42:49;45440.19;;;-141.29;84.89
22025;BME280;11176;51.448;6.650;2022-11-15T10:45:31;45442.19;;;-141.29;82.68
22025;BME280;11176;51.448;6.650;2022-11-15T10:48:22;45458.19;;;-141.29;80.39
22025;BME280;11176;51.448;6.650;2022-11-15T10:50:50;45460.19;;;-141.29;78.31
22025;BME280;11176;51.448;6.650;2022-11-15T10:53:44;45450.19;;;-141.29;76.94
22025;BME280;11176;51.448;6.650;2022-11-15T10:56:13;45422.22;;;-141.29;76.82
22025;BME280;11176;51.448;6.650;2022-11-15T10:58:44;45450.19;;;-141.29;78.13
22025;BME280;11176;51.448;6.650;2022-11-15T11:01:22;45450.19;;;-141.29;77.95
22025;BME280;11176;51.448;6.650;2022-11-15T11:04:08;45442.19;;;-141.29;78.40
22025;BME280;11176;51.448;6.650;2022-11-15T11:06:58;45426.22;;;-141.29;75.30
22025;BME280;11176;51.448;6.650;2022-11-15T11:09:36;45442.19;;;-141.29;75.90
22025;BME280;11176;51.448;6.650;2022-11-15T11:12:05;45432.19;;;-141.29;73.66
22025;BME280;11176;51.448;6.650;2022-11-15T11:14:35;45424.22;;;-141.29;72.66
22025;BME280;11176;51.448;6.650;2022-11-15T11:17:05;45414.22;;;-141.29;71.83
22025;BME280;11176;51.448;6.650;2022-11-15T11:22:34;45420.22;;;-141.29;68.14
22025;BME280;11176;51.448;6.650;2022-11-15T11:25:08;45420.22;;;-141.29;67.24
22025;BME280;11176;51.448;6.650;2022-11-15T11:27:57;45410.22;;;-141.29;67.88
22025;BME280;11176;51.448;6.650;2022-11-15T11:30:40;45398.22;;;-141.29;65.77
22025;BME280;11176;51.448;6.650;2022-11-15T11:33:22;45392.22;;;-141.29;66.97
22025;BME280;11176;51.448;6.650;2022-11-15T11:36:06;45368.25;;;-141.29;66.08
22025;BME280;11176;51.448;6.650;2022-11-15T11:39:05;45362.25;;;-141.29;63.81
22025;BME280;11176;51.448;6.650;2022-11-15T11:47:07;45390.25;;;-141.29;60.25
22025;BME280;11176;51.448;6.650;2022-11-15T11:52:17;45368.25;;;-141.29;60.76
22025;BME280;11176;51.448;6.650;2022-11-15T11:54:51;45354.25;;;-141.29;59.27
22025;BME280;11176;51.448;6.650;2022-11-15T12:02:42;45354.25;;;-141.29;54.73
22025;BME280;11176;51.448;6.650;2022-11-15T12:05:27;45340.28;;;-141.29;54.84
22025;BME280;11176;51.448;6.650;2022-11-15T12:08:02;45354.25;;;-141.29;54.27
22025;BME280;11176;51.448;6.650;2022-11-15T12:10:32;45358.25;;;-141.29;52.74
22025;BME280;11176;51.448;6.650;2022-11-15T12:13:12;45348.28;;;-141.29;52.02
22025;BME280;11176;51.448;6.650;2022-11-15T12:15:45;45344.28;;;-141.29;52.93
22025;BME280;11176;51.448;6.650;2022-11-15T12:18:15;45338.28;;;-141.29;51.56
22025;BME280;11176;51.448;6.650;2022-11-15T12:20:51;45332.28;;;-141.29;52.14
22025;BME280;11176;51.448;6.650;2022-11-15T12:23:24;45336.28;;;-141.29;50.93
22025;BME280;11176;51.448;6.650;2022-11-15T12:26:00;45346.28;;;-141.29;51.04
22025;BME280;11176;51.448;6.650;2022-11-15T12:28:54;45326.28;;;-141.29;48.91
22025;BME280;11176;51.448;6.650;2022-11-15T12:31:45;45314.28;;;-141.29;49.08
22025;BME280;11176;51.448;6.650;2022-11-15T12:36:48;45320.28;;;-141.29;46.97
22025;BME280;11176;51.448;6.650;2022-11-15T12:39:16;45330.28;;;-141.29;44.88
22025;BME280;11176;51.448;6.650;2022-11-15T12:41:43;45322.28;;;-141.29;44.60
22025;BME280;11176;51.448;6.650;2022-11-15T12:44:12;45306.31;;;-141.29;43.86
22025;BME280;11176;51.448;6.650;2022-11-15T12:59:58;45290.31;;;-141.29;41.28
22025;BME280;11176;51.448;6.650;2022-11-15T13:02:30;45310.31;;;-141.29;40.96
22025;BME280;11176;51.448;6.650;2022-11-15T13:22:48;45292.31;;;-141.29;41.05
22025;BME280;11176;51.448;6.650;2022-11-15T13:25:26;45300.31;;;-141.29;40.76
22025;BME280;11176;51.448;6.650;2022-11-15T13:27:53;45314.28;;;-141.29;40.82
22025;BME280;11176;51.448;6.650;2022-11-15T13:30:31;45318.28;;;-141.29;40.87
22025;BME280;11176;51.448;6.650;2022-11-15T13:33:08;45312.31;;;-141.29;42.18
22025;BME280;11176;51.448;6.650;2022-11-15T13:35:38;45314.28;;;-141.29;42.79
22025;BME280;11176;51.448;6.650;2022-11-15T13:38:06;45316.28;;;-141.29;43.38
22025;BME280;11176;51.448;6.650;2022-11-15T13:40:36;45322.28;;;-141.29;43.44
22025;BME280;11176;51.448;6.650;2022-11-15T13:46:33;45322.28;;;-141.29;45.45
22025;BME280;11176;51.448;6.650;2022-11-15T13:49:02;45340.28;;;-141.29;46.20
22025;BME280;11176;51.448;6.650;2022-11-15T13:54:27;45322.28;;;-141.29;47.76
22025;BME280;11176;51.448;6.650;2022-11-15T13:59:29;45342.28;;;-141.29;48.52
22025;BME280;11176;51.448;6.650;2022-11-15T14:01:59;45334.28;;;-141.29;49.20
22025;BME280;11176;51.448;6.650;2022-11-15T14:04:29;45354.25;;;-141.29;49.96
22025;BME280;11176;51.448;6.650;2022-11-15T14:06:58;45346.28;;;-141.29;50.46
22025;BME280;11176;51.448;6.650;2022-11-15T14:09:34;45358.25;;;-141.29;50.87
22025;BME280;11176;51.448;6.650;2022-11-15T14:12:25;45358.25;;;-141.29;51.75
22025;BME280;11176;51.448;6.650;2022-11-15T14:14:52;45362.25;;;-141.29;51.47
22025;BME280;11176;51.448;6.650;2022-11-15T14:19:56;45358.25;;;-141.29;52.52
22025;BME280;11176;51.448;6.650;2022-11-15T14:22:26;45358.25;;;-141.29;53.41
22025;BME280;11176;51.448;6.650;2022-11-15T14:27:40;45360.25;;;-141.29;54.45
22025;BME280;11176;51.448;6.650;2022-11-15T14:30:14;45382.25;;;-141.29;54.51
22025;BME280;11176;51.448;6.650;2022-11-15T14:32:48;45366.25;;;-141.29;54.30
22025;BME280;11176;51.448;6.650;2022-11-15T14:35:19;45368.25;;;-141.29;55.24
22025;BME280;11176;51.448;6.650;2022-11-15T14:37:46;45370.25;;;-141.29;55.32
22025;BME280;11176;51.448;6.650;2022-11-15T14:40:16;45362.25;;;-141.29;55.52
22025;BME280;11176;51.448;6.650;2022-11-15T14:42:48;45362.25;;;-141.29;55.83
22025;BME280;11176;51.448;6.650;2022-11-15T14:45:18;45358.25;;;-141.29;55.70
22025;BME280;11176;51.448;6.650;2022-11-15T14:47:44;45366.25;;;-141.29;56.05
22025;BME280;11176;51.448;6.650;2022-11-15T14:50:15;45374.25;;;-141.29;56.82
22025;BME280;11176;51.448;6.650;2022-11-15T14:52:43;45374.25;;;-141.29;57.24
22025;BME280;11176;51.448;6.650;2022-11-15T14:55:20;45378.25;;;-141.29;57.49
22025;BME280;11176;51.448;6.650;2022-11-15T14:57:47;45394.22;;;-141.29;57.68
22025;BME280;11176;51.448;6.650;2022-11-15T15:00:14;45378.25;;;-141.29;58.14
22025;BME280;11176;51.448;6.650;2022-11-15T15:02:42;45394.22;;;-141.29;58.76
22025;BME280;11176;51.448;6.650;2022-11-15T15:07:45;45386.25;;;-141.29;59.60
22025;BME280;11176;51.448;6.650;2022-11-15T15:10:13;45388.25;;;-141.29;60.23
22025;BME280;11176;51.448;6.650;2022-11-15T15:13:00;45388.25;;;-141.29;60.77
22025;BME280;11176;51.448;6.650;2022-11-15T15:15:33;45390.25;;;-141.29;60.90
22025;BME280;11176;51.448;6.650;2022-11-15T15:18:00;45400.22;;;-141.29;61.62
22025;BME280;11176;51.448;6.650;2022-11-15T15:20:27;45394.22;;;-141.29;62.14
22025;BME280;11176;51.448;6.650;2022-11-15T15:22:54;45390.25;;;-141.29;62.53
22025;BME280;11176;51.448;6.650;2022-11-15T15:25:31;45386.25;;;-141.29;62.66
22025;BME280;11176;51.448;6.650;2022-11-15T15:27:59;45386.25;;;-141.29;62.98
22025;BME280;11176;51.448;6.650;2022-11-15T15:30:27;45402.22;;;-141.29;63.33
22025;BME280;11176;51.448;6.650;2022-11-15T15:32:54;45388.25;;;-141.29;63.81
22025;BME280;11176;51.448;6.650;2022-11-15T15:35:21;45388.25;;;-141.29;64.32
22025;BME280;11176;51.448;6.650;2022-11-15T15:37:48;45394.22;;;-141.29;64.61
22025;BME280;11176;51.448;6.650;2022-11-15T15:40:18;45380.25;;;-141.29;65.17